createdAt,value
2019-05-07T00:02:02.501Z,67.70
2019-05-07T00:04:33.029Z,67.70
2019-05-07T00:07:02.388Z,67.60
2019-05-07T00:09:32.315Z,67.70
2019-05-07T00:12:04.677Z,67.60
2019-05-07T00:14:31.983Z,68.00
2019-05-07T00:17:02.251Z,68.10
2019-05-07T00:19:32.527Z,68.20
2019-05-07T00:22:02.406Z,67.90
2019-05-07T00:24:33.158Z,68.00
2019-05-07T00:27:02.817Z,68.40
2019-05-07T00:29:32.214Z,68.40
2019-05-07T00:32:02.915Z,68.40
2019-05-07T00:34:33.008Z,68.40
2019-05-07T00:37:07.055Z,68.60
2019-05-07T00:39:52.939Z,69.00
2019-05-07T00:42:26.014Z,68.90
2019-05-07T00:45:13.243Z,68.90
2019-05-07T00:47:29.375Z,69.00
2019-05-07T00:49:59.615Z,69.10
2019-05-07T00:52:28.333Z,69.00
2019-05-07T00:54:57.001Z,69.10
2019-05-07T00:57:25.752Z,69.20
2019-05-07T00:59:54.444Z,69.30
2019-05-07T01:02:23.706Z,69.10
2019-05-07T01:04:53.166Z,69.10
2019-05-07T01:07:22.957Z,69.20
2019-05-07T01:09:52.510Z,69.30
2019-05-07T01:12:22.194Z,69.30
2019-05-07T01:14:52.787Z,69.60
2019-05-07T01:17:22.664Z,69.50
2019-05-07T01:19:53.313Z,69.60
2019-05-07T01:22:22.347Z,69.60
2019-05-07T01:24:52.572Z,69.60
2019-05-07T01:27:22.646Z,69.50
2019-05-07T01:29:52.842Z,69.50
2019-05-07T01:32:32.955Z,69.50
2019-05-07T01:35:03.391Z,69.70
2019-05-07T01:37:32.560Z,69.90
2019-05-07T01:40:03.078Z,69.80
2019-05-07T01:42:32.738Z,71.00
2019-05-07T01:45:02.486Z,70.30
2019-05-07T01:47:33.118Z,70.30
2019-05-07T01:50:03.026Z,70.10
2019-05-07T01:52:33.154Z,70.10
2019-05-07T01:55:03.262Z,70.00
2019-05-07T01:57:32.752Z,70.10
2019-05-07T02:00:02.541Z,70.20
2019-05-07T02:02:33.142Z,70.00
2019-05-07T02:05:09.162Z,70.20
2019-05-07T02:07:42.914Z,70.20
2019-05-07T02:10:18.989Z,70.40
2019-05-07T02:12:47.691Z,70.60
2019-05-07T02:15:16.364Z,71.00
2019-05-07T02:17:45.081Z,71.50
2019-05-07T02:20:13.781Z,71.70
2019-05-07T02:22:42.849Z,72.00
2019-05-07T02:25:12.641Z,72.30
2019-05-07T02:27:42.048Z,72.30
2019-05-07T02:30:14.433Z,72.40
2019-05-07T02:32:43.212Z,72.60
2019-05-07T02:35:13.534Z,72.50
2019-05-07T02:37:52.047Z,72.40
2019-05-07T02:40:27.024Z,72.60
2019-05-07T02:42:55.774Z,72.60
2019-05-07T02:45:37.822Z,72.30
2019-05-07T02:48:06.642Z,72.40
2019-05-07T02:50:48.720Z,72.20
2019-05-07T02:53:19.033Z,72.30
2019-05-07T02:55:49.283Z,72.10
2019-05-07T02:58:18.030Z,72.10
2019-05-07T03:00:46.739Z,72.20
2019-05-07T03:03:15.493Z,72.30
2019-05-07T03:05:44.173Z,72.60
2019-05-07T03:08:13.603Z,72.80
2019-05-07T03:10:43.400Z,73.00
2019-05-07T03:13:13.761Z,72.80
2019-05-07T03:15:43.455Z,72.40
2019-05-07T03:18:13.783Z,73.00
2019-05-07T03:20:44.467Z,73.00
2019-05-07T03:23:14.745Z,73.30
2019-05-07T03:25:53.865Z,73.40
2019-05-07T03:28:23.294Z,73.20
2019-05-07T03:31:16.627Z,73.60
2019-05-07T03:33:47.717Z,73.30
2019-05-07T03:36:17.651Z,73.30
2019-05-07T03:38:46.586Z,73.30
2019-05-07T03:41:15.264Z,73.50
2019-05-07T03:43:44.584Z,73.50
2019-05-07T03:46:14.868Z,73.50
2019-05-07T03:48:44.891Z,73.70
2019-05-07T03:51:13.577Z,73.20
2019-05-07T03:53:43.679Z,73.20
2019-05-07T03:56:13.275Z,72.80
2019-05-07T03:58:43.360Z,72.60
2019-05-07T04:01:16.687Z,73.10
2019-05-07T04:03:45.435Z,72.50
2019-05-07T04:06:14.112Z,71.40
2019-05-07T04:08:43.501Z,71.40
2019-05-07T04:11:13.885Z,71.60
2019-05-07T04:13:44.134Z,71.40
2019-05-07T04:16:13.817Z,71.50
2019-05-07T04:18:43.789Z,71.40
2019-05-07T04:21:13.970Z,71.50
2019-05-07T04:23:43.834Z,71.70
2019-05-07T04:26:17.568Z,71.80
2019-05-07T04:28:59.477Z,71.70
2019-05-07T04:31:29.731Z,71.80
2019-05-07T04:34:00.084Z,72.00
2019-05-07T04:36:30.164Z,72.00
2019-05-07T04:38:58.877Z,71.90
2019-05-07T04:41:27.587Z,72.00
2019-05-07T04:43:56.282Z,72.30
2019-05-07T04:46:24.966Z,72.40
2019-05-07T04:48:53.685Z,72.30
2019-05-07T04:51:23.940Z,72.40
2019-05-07T04:53:54.100Z,72.40
2019-05-07T04:56:23.891Z,72.40
2019-05-07T04:58:53.264Z,71.90
2019-05-07T05:01:23.816Z,71.70
2019-05-07T05:03:54.096Z,72.00
2019-05-07T05:06:24.256Z,72.00
2019-05-07T05:08:55.995Z,71.50
2019-05-07T05:11:23.833Z,71.20
2019-05-07T05:13:53.337Z,71.40
2019-05-07T05:16:26.533Z,71.20
2019-05-07T05:18:55.463Z,71.00
2019-05-07T05:21:42.154Z,71.00
2019-05-07T05:24:12.688Z,71.00
2019-05-07T05:26:41.963Z,70.20
2019-05-07T05:29:12.158Z,70.70
2019-05-07T05:31:42.166Z,70.90
2019-05-07T05:34:13.018Z,70.50
2019-05-07T05:36:42.508Z,70.10
2019-05-07T05:39:13.122Z,69.40
2019-05-07T05:41:43.733Z,68.30
2019-05-07T05:44:26.312Z,67.60
2019-05-07T05:46:54.992Z,67.50
2019-05-07T05:49:23.658Z,67.20
2019-05-07T05:51:53.961Z,67.10
2019-05-07T05:54:24.230Z,67.60
2019-05-07T05:56:54.555Z,67.90
2019-05-07T05:59:49.088Z,67.70
2019-05-07T06:02:22.756Z,68.00
2019-05-07T06:05:09.714Z,68.60
2019-05-07T06:07:42.930Z,68.60
2019-05-07T06:10:29.432Z,68.50
2019-05-07T06:13:08.240Z,68.20
2019-05-07T06:15:56.306Z,69.40
2019-05-07T06:18:38.246Z,70.00
2019-05-07T06:21:24.133Z,69.50
2019-05-07T06:23:54.643Z,68.80
2019-05-07T06:26:23.832Z,68.50
2019-05-07T06:28:52.530Z,68.70
2019-05-07T06:31:22.152Z,68.30
2019-05-07T06:33:52.312Z,68.70
2019-05-07T06:36:22.034Z,68.40
2019-05-07T06:38:53.088Z,68.90
2019-05-07T06:41:29.522Z,69.30
2019-05-07T06:44:01.931Z,68.30
2019-05-07T06:46:32.180Z,67.90
2019-05-07T06:49:02.153Z,67.80
2019-05-07T06:51:32.842Z,67.80
2019-05-07T06:54:02.761Z,67.00
2019-05-07T06:56:32.537Z,67.10
2019-05-07T06:59:06.064Z,67.30
2019-05-07T07:01:53.084Z,66.90
2019-05-07T07:04:29.259Z,65.90
2019-05-07T07:07:01.798Z,66.40
2019-05-07T07:09:37.279Z,66.50
2019-05-07T07:12:12.759Z,66.20
2019-05-07T07:14:42.331Z,66.80
2019-05-07T07:17:12.920Z,66.80
2019-05-07T07:19:42.829Z,66.40
2019-05-07T07:22:12.996Z,65.80
2019-05-07T07:24:42.434Z,65.50
2019-05-07T07:27:13.221Z,65.10
2019-05-07T07:29:49.367Z,65.20
2019-05-07T07:32:19.627Z,64.50
2019-05-07T07:34:53.243Z,65.30
2019-05-07T07:37:26.524Z,66.50
2019-05-07T07:40:13.087Z,65.60
2019-05-07T07:42:42.634Z,65.30
2019-05-07T07:45:15.790Z,65.30
2019-05-07T07:47:45.505Z,64.20
2019-05-07T07:50:14.416Z,63.90
2019-05-07T07:52:43.091Z,64.60
2019-05-07T07:55:12.749Z,64.00
2019-05-07T07:57:43.047Z,64.80
2019-05-07T08:00:16.127Z,65.30
2019-05-07T08:02:46.387Z,65.80
2019-05-07T08:05:15.107Z,64.00
2019-05-07T08:07:43.782Z,63.40
2019-05-07T08:10:12.947Z,62.30
2019-05-07T08:12:42.249Z,62.50
2019-05-07T08:15:18.075Z,61.80
2019-05-07T08:17:41.880Z,61.70
2019-05-07T08:20:12.821Z,61.60
2019-05-07T08:22:42.346Z,61.60
2019-05-07T08:25:12.482Z,61.50
2019-05-07T08:27:41.997Z,59.80
2019-05-07T08:30:12.504Z,60.60
2019-05-07T08:32:52.943Z,61.00
2019-05-07T08:35:23.443Z,61.90
2019-05-07T08:37:52.122Z,59.60
2019-05-07T08:40:22.044Z,60.00
2019-05-07T08:42:52.372Z,59.70
2019-05-07T08:45:24.955Z,60.50
2019-05-07T08:47:54.762Z,61.20
2019-05-07T08:50:23.493Z,60.80
2019-05-07T08:52:52.264Z,59.30
2019-05-07T08:55:21.783Z,60.30
2019-05-07T08:57:52.110Z,59.20
2019-05-07T09:00:22.555Z,60.00
2019-05-07T09:02:52.455Z,58.60
2019-05-07T09:05:22.070Z,57.90
2019-05-07T09:07:51.730Z,57.30
2019-05-07T09:10:21.827Z,57.20
2019-05-07T09:12:52.473Z,57.90
2019-05-07T09:15:22.624Z,57.40
2019-05-07T09:17:52.659Z,56.50
2019-05-07T09:20:22.819Z,55.30
2019-05-07T09:22:51.885Z,54.80
2019-05-07T09:25:22.327Z,53.40
2019-05-07T09:27:53.014Z,54.00
2019-05-07T09:30:28.453Z,54.00
2019-05-07T09:32:57.955Z,54.00
2019-05-07T09:35:32.083Z,52.90
2019-05-07T09:38:03.002Z,52.80
2019-05-07T09:40:32.060Z,52.50
2019-05-07T09:43:02.562Z,53.80
2019-05-07T09:45:32.906Z,53.60
2019-05-07T09:48:02.866Z,51.90
2019-05-07T09:50:32.570Z,52.60
2019-05-07T09:53:02.345Z,52.00
2019-05-07T09:55:32.568Z,52.00
2019-05-07T09:58:02.004Z,53.60
2019-05-07T10:00:31.992Z,53.90
2019-05-07T10:03:00.970Z,53.80
2019-05-07T10:05:31.941Z,52.90
2019-05-07T10:08:01.752Z,51.20
2019-05-07T10:10:30.353Z,50.70
2019-05-07T10:13:03.232Z,50.50
2019-05-07T10:15:33.115Z,52.10
2019-05-07T10:18:12.792Z,50.60
2019-05-07T10:20:42.092Z,50.10
2019-05-07T10:23:12.588Z,49.40
2019-05-07T10:25:41.268Z,51.90
2019-05-07T10:28:09.985Z,51.70
2019-05-07T10:30:38.659Z,53.50
2019-05-07T10:33:07.370Z,54.30
2019-05-07T10:35:36.045Z,54.60
2019-05-07T10:38:04.772Z,55.30
2019-05-07T10:40:33.462Z,54.80
2019-05-07T10:43:02.174Z,54.30
2019-05-07T10:45:35.365Z,54.10
2019-05-07T10:48:08.688Z,54.00
2019-05-07T10:50:47.890Z,53.70
2019-05-07T10:53:16.601Z,52.50
2019-05-07T10:55:45.666Z,52.70
2019-05-07T10:58:14.604Z,53.90
2019-05-07T11:00:43.287Z,54.00
2019-05-07T11:03:12.638Z,56.80
2019-05-07T11:05:41.986Z,55.60
2019-05-07T11:08:10.830Z,57.10
2019-05-07T11:10:41.730Z,57.00
2019-05-07T11:13:09.877Z,56.30
2019-05-07T11:15:38.964Z,55.10
2019-05-07T11:18:09.251Z,54.20
2019-05-07T11:20:47.354Z,53.40
2019-05-07T11:23:08.296Z,52.50
2019-05-07T11:25:36.982Z,52.10
2019-05-07T11:28:05.722Z,53.00
2019-05-07T11:30:34.462Z,53.60
2019-05-07T11:33:03.180Z,55.60
2019-05-07T11:35:32.081Z,56.00
2019-05-07T11:38:10.949Z,55.90
2019-05-07T11:40:32.038Z,56.90
2019-05-07T11:43:09.106Z,56.10
2019-05-07T11:45:45.327Z,56.40
2019-05-07T11:48:14.638Z,56.10
2019-05-07T11:51:04.118Z,55.10
2019-05-07T11:53:33.080Z,55.70
2019-05-07T11:56:02.496Z,55.40
2019-05-07T11:58:32.526Z,55.00
2019-05-07T12:01:05.881Z,54.00
2019-05-07T12:03:34.641Z,51.70
2019-05-07T12:06:03.315Z,50.10
2019-05-07T12:08:42.808Z,50.70
2019-05-07T12:11:02.552Z,50.60
2019-05-07T12:13:32.264Z,49.20
2019-05-07T12:16:02.911Z,49.60
2019-05-07T12:18:32.081Z,49.10
2019-05-07T12:21:03.814Z,49.30
2019-05-07T12:23:33.259Z,49.00
2019-05-07T12:26:02.315Z,48.60
2019-05-07T12:28:32.874Z,48.80
2019-05-07T12:31:09.367Z,47.70
2019-05-07T12:33:45.170Z,48.20
2019-05-07T12:36:15.664Z,47.00
2019-05-07T12:38:44.390Z,47.90
2019-05-07T12:41:33.668Z,47.30
2019-05-07T12:44:03.897Z,47.00
2019-05-07T12:46:33.357Z,47.20
2019-05-07T12:49:03.108Z,48.10
2019-05-07T12:51:37.478Z,48.90
2019-05-07T12:54:08.621Z,49.10
2019-05-07T12:56:37.295Z,50.70
2019-05-07T12:59:06.041Z,48.70
2019-05-07T13:01:42.315Z,47.50
2019-05-07T13:04:12.615Z,45.60
2019-05-07T13:06:48.707Z,44.40
2019-05-07T13:09:17.416Z,46.40
2019-05-07T13:11:46.098Z,46.70
2019-05-07T13:14:14.815Z,47.60
2019-05-07T13:16:43.492Z,48.30
2019-05-07T13:19:13.218Z,47.90
2019-05-07T13:21:47.419Z,49.30
2019-05-07T13:24:14.938Z,49.80
2019-05-07T13:26:42.840Z,50.00
2019-05-07T13:29:12.784Z,48.30
2019-05-07T13:31:41.969Z,48.10
2019-05-07T13:34:12.250Z,47.70
2019-05-07T13:36:42.711Z,48.20
2019-05-07T13:39:12.983Z,46.50
2019-05-07T13:41:43.312Z,45.00
2019-05-07T13:44:31.847Z,45.70
2019-05-07T13:47:18.495Z,46.40
2019-05-07T13:49:47.932Z,47.50
2019-05-07T13:52:16.733Z,44.80
2019-05-07T13:54:45.474Z,44.80
2019-05-07T13:57:14.218Z,44.90
2019-05-07T13:59:42.891Z,44.60
2019-05-07T14:02:15.381Z,45.70
2019-05-07T14:04:43.540Z,45.90
2019-05-07T14:07:12.638Z,45.60
2019-05-07T14:09:42.058Z,46.30
2019-05-07T14:12:12.346Z,46.40
2019-05-07T14:14:42.607Z,46.30
2019-05-07T14:17:12.705Z,46.10
2019-05-07T14:19:42.306Z,46.90
2019-05-07T14:22:18.065Z,45.20
2019-05-07T14:24:42.212Z,45.70
2019-05-07T14:27:11.127Z,46.30
2019-05-07T14:29:39.815Z,46.60
2019-05-07T14:32:13.135Z,47.10
2019-05-07T14:35:01.967Z,47.20
2019-05-07T14:37:37.244Z,47.00
2019-05-07T14:40:06.805Z,47.00
2019-05-07T14:42:38.466Z,48.00
2019-05-07T14:45:07.347Z,48.90
2019-05-07T14:47:36.089Z,50.70
2019-05-07T14:50:06.312Z,51.80
2019-05-07T14:52:36.261Z,50.40
2019-05-07T14:55:05.731Z,47.50
2019-05-07T14:57:35.388Z,47.70
2019-05-07T15:00:06.192Z,48.90
2019-05-07T15:02:34.923Z,49.80
2019-05-07T15:05:05.567Z,51.80
2019-05-07T15:07:34.296Z,52.90
2019-05-07T15:10:04.696Z,53.60
2019-05-07T15:12:33.452Z,54.10
2019-05-07T15:15:02.311Z,52.90
2019-05-07T15:17:35.126Z,53.70
2019-05-07T15:20:04.055Z,53.50
2019-05-07T15:22:52.664Z,54.30
2019-05-07T15:25:22.687Z,53.90
2019-05-07T15:27:52.678Z,52.70
2019-05-07T15:30:22.139Z,52.00
2019-05-07T15:32:52.112Z,48.10
2019-05-07T15:35:20.974Z,45.50
2019-05-07T15:37:51.676Z,45.10
2019-05-07T15:40:22.373Z,45.00
2019-05-07T15:42:52.386Z,44.30
2019-05-07T15:45:21.697Z,42.80
2019-05-07T15:47:52.215Z,42.10
2019-05-07T15:50:23.030Z,42.70
2019-05-07T15:53:09.764Z,43.60
2019-05-07T15:55:38.421Z,44.10
2019-05-07T15:58:07.154Z,44.30
2019-05-07T16:00:37.163Z,45.50
2019-05-07T16:03:12.044Z,45.70
2019-05-07T16:05:42.503Z,45.80
2019-05-07T16:08:12.860Z,46.00
2019-05-07T16:10:42.702Z,46.60
2019-05-07T16:13:13.745Z,47.50
2019-05-07T16:15:42.556Z,47.50
2019-05-07T16:18:13.102Z,48.50
2019-05-07T16:20:42.852Z,48.00
2019-05-07T16:23:15.644Z,47.70
2019-05-07T16:25:42.301Z,47.80
2019-05-07T16:28:12.809Z,48.30
2019-05-07T16:30:42.660Z,47.60
2019-05-07T16:33:12.782Z,47.80
2019-05-07T16:35:42.541Z,47.60
2019-05-07T16:38:14.517Z,48.90
2019-05-07T16:40:42.860Z,48.80
2019-05-07T16:43:12.129Z,49.30
2019-05-07T16:45:42.487Z,49.00
2019-05-07T16:48:11.935Z,49.70
2019-05-07T16:50:40.894Z,49.80
2019-05-07T16:53:09.612Z,50.30
2019-05-07T16:55:38.321Z,50.70
2019-05-07T16:58:08.649Z,50.50
2019-05-07T17:00:52.789Z,51.00
2019-05-07T17:03:22.875Z,51.10
2019-05-07T17:05:52.398Z,51.60
2019-05-07T17:08:22.881Z,52.00
2019-05-07T17:10:52.372Z,52.40
2019-05-07T17:13:21.302Z,52.80
2019-05-07T17:15:57.530Z,53.00
2019-05-07T17:18:26.695Z,53.20
2019-05-07T17:20:56.149Z,54.00
2019-05-07T17:23:24.926Z,54.00
2019-05-07T17:25:53.625Z,54.30
2019-05-07T17:28:22.969Z,54.30
2019-05-07T17:30:52.452Z,54.50
2019-05-07T17:33:23.060Z,54.80
2019-05-07T17:35:51.891Z,54.90
2019-05-07T17:38:22.872Z,55.30
2019-05-07T17:40:52.151Z,55.10
2019-05-07T17:43:21.951Z,55.20
2019-05-07T17:45:52.368Z,55.30
2019-05-07T17:48:23.262Z,55.30
2019-05-07T17:51:08.440Z,56.10
2019-05-07T17:53:37.549Z,55.50
2019-05-07T17:56:06.351Z,55.90
2019-05-07T17:58:35.104Z,56.10
2019-05-07T18:01:04.733Z,56.10
2019-05-07T18:03:37.810Z,56.70
2019-05-07T18:06:06.609Z,57.00
2019-05-07T18:08:35.371Z,57.20
2019-05-07T18:11:17.285Z,57.80
2019-05-07T18:13:34.441Z,58.00
2019-05-07T18:16:12.149Z,58.30
2019-05-07T18:18:43.042Z,58.40
2019-05-07T18:21:12.594Z,58.60
2019-05-07T18:23:41.547Z,58.70
2019-05-07T18:26:13.557Z,58.70
2019-05-07T18:28:41.691Z,58.70
2019-05-07T18:31:12.613Z,59.00
2019-05-07T18:33:44.164Z,59.40
2019-05-07T18:36:12.844Z,59.30
2019-05-07T18:38:42.362Z,59.40
2019-05-07T18:41:12.147Z,59.60
2019-05-07T18:43:42.188Z,59.70
2019-05-07T18:46:12.889Z,59.70
2019-05-07T18:48:42.599Z,60.00
2019-05-07T18:51:12.157Z,60.10
2019-05-07T18:53:42.483Z,60.20
2019-05-07T18:56:12.619Z,60.10
2019-05-07T18:58:42.582Z,60.20
2019-05-07T19:01:13.123Z,59.90
2019-05-07T19:03:42.087Z,60.10
2019-05-07T19:06:13.160Z,60.90
2019-05-07T19:08:42.242Z,60.60
2019-05-07T19:11:12.271Z,61.40
2019-05-07T19:13:41.975Z,60.40
2019-05-07T19:16:12.386Z,60.40
2019-05-07T19:18:43.142Z,60.30
2019-05-07T19:21:11.698Z,61.20
2019-05-07T19:23:42.344Z,61.20
2019-05-07T19:26:13.043Z,61.00
2019-05-07T19:28:42.232Z,61.00
2019-05-07T19:31:12.512Z,61.20
2019-05-07T19:33:42.017Z,61.90
2019-05-07T19:36:10.902Z,61.50
2019-05-07T19:38:41.912Z,61.70
2019-05-07T19:41:12.117Z,61.90
2019-05-07T19:43:42.001Z,61.80
2019-05-07T19:46:12.344Z,61.90
2019-05-07T19:48:41.128Z,61.90
2019-05-07T19:51:12.030Z,61.90
2019-05-07T19:53:41.989Z,62.10
2019-05-07T19:56:15.089Z,62.60
2019-05-07T19:58:43.816Z,62.60
2019-05-07T20:01:14.081Z,62.80
2019-05-07T20:03:43.460Z,63.00
2019-05-07T20:06:13.990Z,62.90
2019-05-07T20:08:43.725Z,63.30
2019-05-07T20:11:22.287Z,63.70
2019-05-07T20:13:52.409Z,62.90
2019-05-07T20:16:23.183Z,62.70
2019-05-07T20:18:52.534Z,63.00
2019-05-07T20:21:22.948Z,63.50
2019-05-07T20:23:52.740Z,64.60
2019-05-07T20:26:23.163Z,63.70
2019-05-07T20:28:52.674Z,63.70
2019-05-07T20:31:22.697Z,64.10
2019-05-07T20:33:53.036Z,64.20
2019-05-07T20:36:21.976Z,64.20
2019-05-07T20:38:52.103Z,64.10
2019-05-07T20:41:23.063Z,63.80
2019-05-07T20:43:52.363Z,63.70
2019-05-07T20:46:21.323Z,63.70
2019-05-07T20:48:50.025Z,63.90
2019-05-07T20:51:18.787Z,64.10
2019-05-07T20:53:52.341Z,64.30
2019-05-07T20:56:22.719Z,64.30
2019-05-07T20:58:52.068Z,64.60
2019-05-07T21:01:22.013Z,64.90
2019-05-07T21:03:52.752Z,65.40
2019-05-07T21:06:22.484Z,66.00
2019-05-07T21:08:51.397Z,67.00
2019-05-07T21:11:22.467Z,67.60
2019-05-07T21:13:52.288Z,67.80
2019-05-07T21:16:22.102Z,67.80
2019-05-07T21:18:52.833Z,67.70
2019-05-07T21:21:21.890Z,67.90
2019-05-07T21:23:52.702Z,68.00
2019-05-07T21:26:22.536Z,68.00
2019-05-07T21:28:52.775Z,67.90
2019-05-07T21:31:22.760Z,68.00
2019-05-07T21:33:52.392Z,68.00
2019-05-07T21:36:22.892Z,68.30
2019-05-07T21:38:52.034Z,68.80
2019-05-07T21:41:22.685Z,69.00
2019-05-07T21:43:52.842Z,69.20
2019-05-07T21:46:22.309Z,69.30
2019-05-07T21:48:51.799Z,69.50
2019-05-07T21:51:22.889Z,70.10
2019-05-07T21:53:59.140Z,70.40
2019-05-07T21:56:45.320Z,70.50
2019-05-07T21:59:15.591Z,70.20
2019-05-07T22:01:45.921Z,70.50
2019-05-07T22:04:14.605Z,70.90
2019-05-07T22:06:45.536Z,70.90
2019-05-07T22:09:14.384Z,70.70
2019-05-07T22:11:43.099Z,70.90
2019-05-07T22:14:12.918Z,71.30
2019-05-07T22:16:41.947Z,71.30
2019-05-07T22:19:12.141Z,71.30
2019-05-07T22:21:43.278Z,71.20
2019-05-07T22:24:13.064Z,71.40
2019-05-07T22:26:42.149Z,70.90
2019-05-07T22:29:12.505Z,69.80
2019-05-07T22:31:44.275Z,69.80
2019-05-07T22:34:14.718Z,69.90
2019-05-07T22:36:43.441Z,69.70
2019-05-07T22:39:13.775Z,70.10
2019-05-07T22:41:42.590Z,70.30
2019-05-07T22:44:12.006Z,70.40
2019-05-07T22:46:42.178Z,70.60
2019-05-07T22:49:12.242Z,70.90
2019-05-07T22:51:41.131Z,71.20
2019-05-07T22:54:11.736Z,71.20
2019-05-07T22:56:58.033Z,72.20
2019-05-07T22:59:26.701Z,71.60
2019-05-07T23:01:55.423Z,72.00
2019-05-07T23:04:24.138Z,72.10
2019-05-07T23:06:52.999Z,72.40
2019-05-07T23:09:22.373Z,72.60
2019-05-07T23:11:52.579Z,72.40
2019-05-07T23:14:22.618Z,72.60
2019-05-07T23:16:53.954Z,72.80
2019-05-07T23:19:22.280Z,73.10
2019-05-07T23:21:52.095Z,73.70
2019-05-07T23:24:22.726Z,74.00
2019-05-07T23:26:53.680Z,74.50
2019-05-07T23:29:22.685Z,74.80
2019-05-07T23:31:52.891Z,74.60
2019-05-07T23:34:22.199Z,74.60
2019-05-07T23:36:53.316Z,74.30
2019-05-07T23:39:23.180Z,74.50
2019-05-07T23:41:59.325Z,74.70
2019-05-07T23:44:28.020Z,75.30
2019-05-07T23:46:56.749Z,74.70
2019-05-07T23:49:25.437Z,74.80
2019-05-07T23:51:54.128Z,74.90
2019-05-07T23:54:23.285Z,74.90
2019-05-07T23:57:04.922Z,74.50
2019-05-07T23:59:22.480Z,74.60
